Time;durP1;ratioP1;P1;durP2;ratioP2;P2;SDS_P1;SDS_P2;PMS_P1;PMS_P2;Temp;Humidity;BMP_temperature;BMP_pressure;BME280_temperature;BME280_humidity;BME280_pressure;Samples;Min_cycle;Max_cycle;Signal;HPM_P1;HPM_P2
2023/11/10 00:02:12;;;;;;;7.45;6.40;;;;;;;;;;5054115;28;20280;-47
2023/11/10 00:04:38;;;;;;;14.40;6.55;;;;;;;;;;5077839;28;20020;-48
2023/11/10 00:07:04;;;;;;;7.50;6.72;;;;;;;;;;5093604;28;20024;-47
2023/11/10 00:09:34;;;;;;;7.90;6.70;;;;;;;;;;5063992;28;20074;-47
2023/11/10 00:12:01;;;;;;;7.07;5.80;;;;;;;;;;5074076;28;20031;-47
2023/11/10 00:14:29;;;;;;;8.93;6.85;;;;;;;;;;5038975;28;20504;-48
2023/11/10 00:16:56;;;;;;;9.35;7.30;;;;;;;;;;5074079;28;20043;-47
2023/11/10 00:19:22;;;;;;;8.73;7.18;;;;;;;;;;5073049;28;20093;-49
2023/11/10 00:21:50;;;;;;;10.10;7.23;;;;;;;;;;5085702;28;20401;-50
2023/11/10 00:24:19;;;;;;;10.52;8.13;;;;;;;;;;5083212;28;20033;-48
2023/11/10 00:26:46;;;;;;;12.10;7.95;;;;;;;;;;5062369;28;20073;-47
2023/11/10 00:29:12;;;;;;;13.82;9.43;;;;;;;;;;5052520;28;20118;-47
2023/11/10 00:31:38;;;;;;;10.80;9.07;;;;;;;;;;5029564;28;20413;-47
2023/11/10 00:34:05;;;;;;;9.93;8.73;;;;;;;;;;5053987;28;20021;-47
2023/11/10 00:36:31;;;;;;;12.35;9.60;;;;;;;;;;5061004;28;20083;-47
2023/11/10 00:38:58;;;;;;;11.82;8.88;;;;;;;;;;5066207;28;20036;-47
2023/11/10 00:41:24;;;;;;;12.25;9.52;;;;;;;;;;5045433;28;20036;-47
2023/11/10 00:43:50;;;;;;;10.57;9.10;;;;;;;;;;5019273;28;20073;-48
2023/11/10 00:46:17;;;;;;;10.45;9.05;;;;;;;;;;5072338;28;20525;-49
2023/11/10 00:48:43;;;;;;;9.25;8.32;;;;;;;;;;5073222;28;20512;-48
2023/11/10 00:51:09;;;;;;;11.80;8.55;;;;;;;;;;5064246;28;20048;-51
2023/11/10 00:53:35;;;;;;;16.23;9.43;;;;;;;;;;5034712;28;20104;-47
2023/11/10 00:56:02;;;;;;;10.57;8.93;;;;;;;;;;5065068;28;20078;-47
2023/11/10 00:58:28;;;;;;;9.60;7.22;;;;;;;;;;5064108;28;20095;-48
2023/11/10 01:00:54;;;;;;;11.15;7.43;;;;;;;;;;5065898;28;20540;-50
2023/11/10 01:03:20;;;;;;;10.23;7.95;;;;;;;;;;5040386;28;20383;-48
2023/11/10 01:05:46;;;;;;;10.05;7.65;;;;;;;;;;5055049;28;20032;-47
2023/11/10 01:08:12;;;;;;;11.35;8.18;;;;;;;;;;5053661;28;20047;-47
2023/11/10 01:10:39;;;;;;;9.73;7.20;;;;;;;;;;5054909;28;20031;-50
2023/11/10 01:13:05;;;;;;;10.82;8.02;;;;;;;;;;5054639;28;20111;-47
2023/11/10 01:15:31;;;;;;;10.82;8.02;;;;;;;;;;5053778;28;20409;-48
2023/11/10 01:17:58;;;;;;;9.88;8.65;;;;;;;;;;5054668;28;20028;-47
2023/11/10 01:20:24;;;;;;;12.77;8.85;;;;;;;;;;5072561;28;20417;-48
2023/11/10 01:22:50;;;;;;;10.25;9.15;;;;;;;;;;5072205;28;20028;-47
2023/11/10 01:25:16;;;;;;;13.15;8.25;;;;;;;;;;5072603;28;20028;-47
2023/11/10 01:27:42;;;;;;;13.33;8.93;;;;;;;;;;5054563;28;20486;-46
2023/11/10 01:30:14;;;;;;;11.43;9.55;;;;;;;;;;5055409;28;20032;-47
2023/11/10 01:32:41;;;;;;;12.43;10.00;;;;;;;;;;5071350;28;20099;-48
2023/11/10 01:35:07;;;;;;;10.90;9.30;;;;;;;;;;5053173;28;20407;-50
2023/11/10 01:37:34;;;;;;;;;;;;;;;;;;5064130;28;20025;-50
2023/11/10 01:40:02;;;;;;;15.73;10.73;;;;;;;;;;5026795;28;19908;-48
2023/11/10 01:42:28;;;;;;;10.65;9.55;;;;;;;;;;5053307;28;20498;-48
2023/11/10 01:44:54;;;;;;;14.98;11.45;;;;;;;;;;5072090;28;20453;-48
2023/11/10 01:47:20;;;;;;;13.95;10.93;;;;;;;;;;5035680;28;20553;-47
2023/11/10 01:49:46;;;;;;;14.15;12.63;;;;;;;;;;5034453;28;20071;-48
2023/11/10 01:52:14;;;;;;;12.40;10.45;;;;;;;;;;5034696;28;20033;-48
2023/11/10 01:54:40;;;;;;;12.90;11.18;;;;;;;;;;5055035;28;20016;-48
2023/11/10 01:57:09;;;;;;;13.80;10.80;;;;;;;;;;5067949;28;20039;-47
2023/11/10 01:59:37;;;;;;;13.43;10.30;;;;;;;;;;5037214;28;20369;-47
2023/11/10 02:02:03;;;;;;;12.80;11.30;;;;;;;;;;5071823;28;20478;-58
2023/11/10 02:04:32;;;;;;;13.15;11.73;;;;;;;;;;5054929;28;20123;-49
2023/11/10 02:06:58;;;;;;;13.25;11.10;;;;;;;;;;5092298;28;20032;-46
2023/11/10 02:09:25;;;;;;;11.03;9.93;;;;;;;;;;5074148;28;20020;-47
2023/11/10 02:11:52;;;;;;;15.05;12.73;;;;;;;;;;5073772;28;20328;-47
2023/11/10 02:14:18;;;;;;;12.13;10.90;;;;;;;;;;5073959;28;20028;-50
2023/11/10 02:16:44;;;;;;;13.90;11.32;;;;;;;;;;5055759;28;20051;-47
2023/11/10 02:19:17;;;;;;;15.82;13.60;;;;;;;;;;5053745;28;20401;-48
2023/11/10 02:21:44;;;;;;;15.48;13.60;;;;;;;;;;5053841;28;20040;-47
2023/11/10 02:24:25;;;;;;;13.40;11.95;;;;;;;;;;5052000;28;20028;-48
2023/11/10 02:26:51;;;;;;;15.30;13.70;;;;;;;;;;5069877;28;20113;-47
2023/11/10 02:29:19;;;;;;;12.82;11.10;;;;;;;;;;5046039;28;20382;-48
2023/11/10 02:31:45;;;;;;;12.60;10.15;;;;;;;;;;5047088;28;20115;-47
2023/11/10 02:34:11;;;;;;;9.50;8.52;;;;;;;;;;5068259;28;20063;-47
2023/11/10 02:36:37;;;;;;;10.32;9.23;;;;;;;;;;5055016;28;20028;-47
2023/11/10 02:39:05;;;;;;;11.00;8.70;;;;;;;;;;5057733;28;20040;-47
2023/11/10 02:41:31;;;;;;;14.15;9.18;;;;;;;;;;5070894;28;20456;-48
2023/11/10 02:43:57;;;;;;;10.30;9.30;;;;;;;;;;5070950;28;20052;-47
2023/11/10 02:46:23;;;;;;;11.02;9.88;;;;;;;;;;5060575;28;20090;-47
2023/11/10 02:48:51;;;;;;;10.73;9.43;;;;;;;;;;5033566;28;20029;-47
2023/11/10 02:51:17;;;;;;;10.98;9.88;;;;;;;;;;5033329;28;20054;-47
2023/11/10 02:53:43;;;;;;;11.05;9.15;;;;;;;;;;5055369;28;20505;-48
2023/11/10 02:56:09;;;;;;;11.95;9.13;;;;;;;;;;5032537;28;20028;-50
2023/11/10 02:58:36;;;;;;;10.15;9.13;;;;;;;;;;5050904;28;20576;-48
2023/11/10 03:01:02;;;;;;;9.10;8.23;;;;;;;;;;5040985;28;20025;-47
2023/11/10 03:03:28;;;;;;;12.27;9.70;;;;;;;;;;5053123;28;20021;-47
2023/11/10 03:05:56;;;;;;;13.93;9.80;;;;;;;;;;5070670;28;20372;-48
2023/11/10 03:08:23;;;;;;;11.27;9.32;;;;;;;;;;5070844;28;20053;-47
2023/11/10 03:10:50;;;;;;;11.00;9.57;;;;;;;;;;5055902;28;20031;-48
2023/11/10 03:13:16;;;;;;;;;;;;;;;;;;5049929;28;20098;-49
2023/11/10 03:15:43;;;;;;;10.23;9.13;;;;;;;;;;5047451;28;19923;-47
2023/11/10 03:18:09;;;;;;;11.10;8.87;;;;;;;;;;5035909;28;20039;-49
2023/11/10 03:20:35;;;;;;;11.63;8.98;;;;;;;;;;5069671;28;20029;-49
2023/11/10 03:23:01;;;;;;;11.43;10.02;;;;;;;;;;5054049;28;20111;-48
2023/11/10 03:25:28;;;;;;;12.23;10.93;;;;;;;;;;5070027;28;20037;-49
2023/11/10 03:27:55;;;;;;;16.02;11.52;;;;;;;;;;5052392;28;20031;-47
2023/11/10 03:30:21;;;;;;;12.20;10.90;;;;;;;;;;5070520;28;20024;-47
2023/11/10 03:32:47;;;;;;;11.13;10.00;;;;;;;;;;5035893;28;20086;-48
2023/11/10 03:35:14;;;;;;;13.88;12.48;;;;;;;;;;5070836;28;20032;-48
2023/11/10 03:37:40;;;;;;;12.07;10.83;;;;;;;;;;5052862;28;20064;-46
2023/11/10 03:40:07;;;;;;;;;;;;;;;;;;5071052;28;20275;-46
2023/11/10 03:42:33;;;;;;;13.48;12.15;;;;;;;;;;5070405;28;19916;-47
2023/11/10 03:44:59;;;;;;;13.60;11.75;;;;;;;;;;5070598;28;20024;-50
2023/11/10 03:47:25;;;;;;;14.15;11.70;;;;;;;;;;5070517;28;20299;-48
2023/11/10 03:49:51;;;;;;;13.70;12.30;;;;;;;;;;5070692;28;20033;-48
2023/11/10 03:52:18;;;;;;;14.43;12.88;;;;;;;;;;5070029;28;20403;-48
2023/11/10 03:54:44;;;;;;;15.45;12.77;;;;;;;;;;5070316;28;20492;-50
2023/11/10 03:57:11;;;;;;;15.85;13.23;;;;;;;;;;5073091;28;20162;-47
2023/11/10 03:59:40;;;;;;;15.80;13.88;;;;;;;;;;5074206;28;20036;-49
2023/11/10 04:02:06;;;;;;;18.70;14.30;;;;;;;;;;5039427;28;20033;-47
2023/11/10 04:04:33;;;;;;;15.60;14.00;;;;;;;;;;5055524;28;20033;-46
2023/11/10 04:07:00;;;;;;;27.25;13.63;;;;;;;;;;5055295;28;20305;-47
2023/11/10 04:09:26;;;;;;;13.93;12.43;;;;;;;;;;5041744;28;20032;-50
2023/11/10 04:11:52;;;;;;;16.73;13.05;;;;;;;;;;5039604;28;20493;-47
2023/11/10 04:14:19;;;;;;;15.95;12.98;;;;;;;;;;5065302;28;20025;-48
2023/11/10 04:16:45;;;;;;;14.93;12.32;;;;;;;;;;5068397;28;20028;-47
2023/11/10 04:22:02;;;;;;;14.88;11.88;;;;;;;;;;5002474;28;20699;-56
2023/11/10 04:24:28;;;;;;;18.30;12.63;;;;;;;;;;4980630;28;20030;-60
2023/11/10 04:26:55;;;;;;;13.20;11.75;;;;;;;;;;4977248;28;20109;-59
2023/11/10 04:29:21;;;;;;;13.88;11.45;;;;;;;;;;4993766;28;20037;-60
2023/11/10 04:31:47;;;;;;;19.05;12.15;;;;;;;;;;4980645;28;20105;-59
2023/11/10 04:34:14;;;;;;;15.13;12.57;;;;;;;;;;4989851;28;20034;-58
2023/11/10 04:36:43;;;;;;;17.67;12.90;;;;;;;;;;4993030;28;20026;-61
2023/11/10 04:39:09;;;;;;;17.08;14.02;;;;;;;;;;4993582;28;20466;-61
2023/11/10 04:41:36;;;;;;;21.55;16.00;;;;;;;;;;4993810;28;20037;-59
2023/11/10 04:44:02;;;;;;;21.02;17.10;;;;;;;;;;4989966;28;20023;-59
2023/11/10 04:46:28;;;;;;;18.92;16.33;;;;;;;;;;4993366;28;20054;-58
2023/11/10 04:48:55;;;;;;;22.55;16.65;;;;;;;;;;4993474;28;20404;-61
2023/11/10 04:51:21;;;;;;;24.05;19.33;;;;;;;;;;4991067;28;20054;-59
2023/11/10 04:53:47;;;;;;;24.10;19.13;;;;;;;;;;4978532;28;20027;-59
2023/11/10 04:56:15;;;;;;;23.73;19.38;;;;;;;;;;4974523;28;20058;-53
2023/11/10 04:58:43;;;;;;;23.33;20.40;;;;;;;;;;4992666;28;20035;-58
2023/11/10 05:01:10;;;;;;;28.52;20.73;;;;;;;;;;4975644;28;20038;-57
2023/11/10 05:03:37;;;;;;;32.25;22.85;;;;;;;;;;4993517;28;20174;-58
2023/11/10 05:06:04;;;;;;;26.88;21.95;;;;;;;;;;4975787;28;20031;-57
2023/11/10 05:08:30;;;;;;;28.33;21.10;;;;;;;;;;4976272;28;20567;-58
2023/11/10 05:10:56;;;;;;;29.08;22.77;;;;;;;;;;4993643;28;20480;-58
2023/11/10 05:13:22;;;;;;;26.42;21.65;;;;;;;;;;4993792;28;20034;-58
2023/11/10 05:15:48;;;;;;;23.50;16.92;;;;;;;;;;4993804;28;20077;-57
2023/11/10 05:18:14;;;;;;;33.00;25.08;;;;;;;;;;4976378;28;20108;-60
2023/11/10 05:20:40;;;;;;;31.13;22.73;;;;;;;;;;4993734;28;20026;-58
2023/11/10 05:23:07;;;;;;;27.02;19.13;;;;;;;;;;4993669;28;20113;-58
2023/11/10 05:25:33;;;;;;;29.02;20.75;;;;;;;;;;4993581;28;20026;-58
2023/11/10 05:27:59;;;;;;;30.20;20.90;;;;;;;;;;4993442;28;20081;-58
2023/11/10 05:30:25;;;;;;;31.55;22.38;;;;;;;;;;4993411;28;20488;-58
2023/11/10 05:32:52;;;;;;;46.95;27.33;;;;;;;;;;4992046;28;20515;-58
2023/11/10 05:35:18;;;;;;;39.33;29.15;;;;;;;;;;4992203;28;20094;-58
2023/11/10 05:37:44;;;;;;;39.45;28.15;;;;;;;;;;4993445;28;20436;-59
2023/11/10 05:40:11;;;;;;;39.90;28.17;;;;;;;;;;4993212;28;20442;-58
2023/11/10 05:42:38;;;;;;;40.83;30.13;;;;;;;;;;4993234;28;20070;-58
2023/11/10 05:45:04;;;;;;;46.35;32.25;;;;;;;;;;4993254;28;20039;-57
2023/11/10 05:47:30;;;;;;;46.03;31.73;;;;;;;;;;4993400;28;20038;-58
2023/11/10 05:49:56;;;;;;;47.60;31.17;;;;;;;;;;4993173;28;20311;-56
2023/11/10 05:52:23;;;;;;;47.72;31.63;;;;;;;;;;4993231;28;20451;-58
2023/11/10 05:54:50;;;;;;;50.72;33.47;;;;;;;;;;4993086;28;20104;-60
2023/11/10 05:57:17;;;;;;;51.40;35.78;;;;;;;;;;4993137;28;20058;-58
2023/11/10 05:59:46;;;;;;;59.40;37.65;;;;;;;;;;4975608;28;20034;-58
2023/11/10 06:02:12;;;;;;;65.70;39.00;;;;;;;;;;4991478;28;20097;-58
2023/11/10 06:04:39;;;;;;;61.90;39.77;;;;;;;;;;4992914;28;20508;-58
2023/11/10 06:07:05;;;;;;;58.35;37.03;;;;;;;;;;4975358;28;20537;-58
2023/11/10 06:09:32;;;;;;;60.47;37.38;;;;;;;;;;4992724;28;20026;-58
2023/11/10 06:11:58;;;;;;;64.68;38.58;;;;;;;;;;4991378;28;20027;-58
2023/11/10 06:14:24;;;;;;;59.03;36.40;;;;;;;;;;4991482;28;20500;-58
2023/11/10 06:16:50;;;;;;;66.32;40.90;;;;;;;;;;4975281;28;20077;-58
2023/11/10 06:19:16;;;;;;;58.90;36.75;;;;;;;;;;4992118;28;20038;-58
2023/11/10 06:21:43;;;;;;;67.05;39.47;;;;;;;;;;4971797;28;20043;-59
2023/11/10 06:24:09;;;;;;;70.47;38.47;;;;;;;;;;4955873;28;20531;-58
2023/11/10 06:26:38;;;;;;;74.00;42.10;;;;;;;;;;4972972;28;20035;-59
2023/11/10 06:29:05;;;;;;;81.25;43.25;;;;;;;;;;4973135;28;20031;-58
2023/11/10 06:31:31;;;;;;;;;;;;;;;;;;4955925;28;20077;-59
2023/11/10 06:33:57;;;;;;;79.85;43.58;;;;;;;;;;4972109;28;19910;-59
2023/11/10 06:36:24;;;;;;;80.68;43.75;;;;;;;;;;4973021;28;20089;-59
2023/11/10 06:38:50;;;;;;;84.45;42.35;;;;;;;;;;4971788;28;20038;-58
2023/11/10 06:41:16;;;;;;;87.75;44.83;;;;;;;;;;4971648;28;20035;-58
2023/11/10 06:43:44;;;;;;;88.65;45.80;;;;;;;;;;4972957;28;20026;-57
2023/11/10 06:46:11;;;;;;;88.45;46.38;;;;;;;;;;4972939;28;20477;-58
2023/11/10 06:48:37;;;;;;;88.35;45.17;;;;;;;;;;4972803;28;20060;-58
2023/11/10 06:51:03;;;;;;;83.03;44.20;;;;;;;;;;4972610;28;20046;-57
2023/11/10 06:53:29;;;;;;;90.63;45.30;;;;;;;;;;4972800;28;20031;-58
2023/11/10 06:55:56;;;;;;;84.47;43.88;;;;;;;;;;4972802;28;20031;-58
2023/11/10 06:58:22;;;;;;;94.47;47.10;;;;;;;;;;4955494;28;20042;-57
2023/11/10 07:00:49;;;;;;;77.70;42.40;;;;;;;;;;4972496;28;20038;-58
2023/11/10 07:03:16;;;;;;;;;;;;;;;;;;4955850;28;20034;-56
2023/11/10 07:05:43;;;;;;;76.32;42.75;;;;;;;;;;4971476;28;19910;-58
2023/11/10 07:08:09;;;;;;;79.45;43.25;;;;;;;;;;4972644;28;20026;-56
2023/11/10 07:10:37;;;;;;;78.33;43.80;;;;;;;;;;4971233;28;20027;-55
2023/11/10 07:13:04;;;;;;;72.95;39.65;;;;;;;;;;4972684;28;20037;-58
2023/11/10 07:15:30;;;;;;;;;;;;;;;;;;4973142;28;20035;-55
2023/11/10 07:17:56;;;;;;;76.80;42.45;;;;;;;;;;4972533;28;19920;-58
2023/11/10 07:20:22;;;;;;;71.55;41.00;;;;;;;;;;4981152;28;20049;-58
2023/11/10 07:22:49;;;;;;;70.60;41.45;;;;;;;;;;4991727;28;20037;-58
2023/11/10 07:25:16;;;;;;;69.57;38.88;;;;;;;;;;4991948;28;20069;-58
2023/11/10 07:27:42;;;;;;;68.78;38.30;;;;;;;;;;4990574;28;20451;-57
2023/11/10 07:30:08;;;;;;;65.05;34.97;;;;;;;;;;4990594;28;20031;-59
2023/11/10 07:32:35;;;;;;;68.40;39.28;;;;;;;;;;4994598;28;20026;-58
2023/11/10 07:35:05;;;;;;;66.03;39.22;;;;;;;;;;4994555;28;20030;-58
2023/11/10 07:37:35;;;;;;;64.55;37.60;;;;;;;;;;4995562;28;20035;-58
2023/11/10 07:40:05;;;;;;;69.30;39.33;;;;;;;;;;4995461;28;20037;-58
2023/11/10 07:42:31;;;;;;;65.43;38.25;;;;;;;;;;4995320;28;20045;-59
2023/11/10 07:44:58;;;;;;;61.60;37.08;;;;;;;;;;4994228;28;20030;-57
2023/11/10 07:47:24;;;;;;;67.00;38.92;;;;;;;;;;4995380;28;20034;-56
2023/11/10 07:49:50;;;;;;;59.38;35.67;;;;;;;;;;4994037;28;20054;-58
2023/11/10 07:52:17;;;;;;;60.63;37.38;;;;;;;;;;4993905;28;20085;-58
2023/11/10 07:54:43;;;;;;;58.83;36.95;;;;;;;;;;4995563;28;20032;-58
2023/11/10 07:57:10;;;;;;;56.28;35.47;;;;;;;;;;4995401;28;20030;-57
2023/11/10 07:59:36;;;;;;;57.38;37.15;;;;;;;;;;4993980;28;20034;-58
2023/11/10 08:02:02;;;;;;;53.63;35.57;;;;;;;;;;4977617;28;20038;-57
2023/11/10 08:04:29;;;;;;;53.90;34.07;;;;;;;;;;4995097;28;20821;-54
2023/11/10 08:06:56;;;;;;;50.92;33.97;;;;;;;;;;4993808;28;20073;-58
2023/11/10 08:09:22;;;;;;;48.17;33.25;;;;;;;;;;4995071;28;20033;-56
2023/11/10 08:11:48;;;;;;;57.42;34.65;;;;;;;;;;4994862;28;20045;-56
2023/11/10 08:14:14;;;;;;;47.10;31.80;;;;;;;;;;4994973;28;20057;-58
2023/11/10 08:16:40;;;;;;;46.90;32.13;;;;;;;;;;4994882;28;20065;-57
2023/11/10 08:19:09;;;;;;;45.28;31.50;;;;;;;;;;4994783;28;20041;-58
2023/11/10 08:21:36;;;;;;;43.63;30.00;;;;;;;;;;4994547;28;20109;-57
2023/11/10 08:24:03;;;;;;;48.65;31.83;;;;;;;;;;4994814;28;20496;-56
2023/11/10 08:26:29;;;;;;;43.90;31.10;;;;;;;;;;4977250;28;20029;-58
2023/11/10 08:28:55;;;;;;;46.63;32.42;;;;;;;;;;4994681;28;20023;-57
2023/11/10 08:31:22;;;;;;;45.80;31.70;;;;;;;;;;4994401;28;20027;-60
2023/11/10 08:33:48;;;;;;;55.38;34.83;;;;;;;;;;4977235;28;20026;-60
2023/11/10 08:36:14;;;;;;;49.23;33.27;;;;;;;;;;4977164;28;20038;-60
2023/11/10 08:38:41;;;;;;;50.70;34.72;;;;;;;;;;4993435;28;20258;-60
2023/11/10 08:41:11;;;;;;;48.63;33.72;;;;;;;;;;4993082;28;20034;-59
2023/11/10 08:43:37;;;;;;;47.05;32.17;;;;;;;;;;4993898;28;20101;-60
2023/11/10 08:46:03;;;;;;;49.15;32.35;;;;;;;;;;4993348;28;20077;-59
2023/11/10 08:48:29;;;;;;;49.92;33.33;;;;;;;;;;4993023;28;20121;-59
2023/11/10 08:50:55;;;;;;;47.17;31.45;;;;;;;;;;4994114;28;20489;-59
2023/11/10 08:53:22;;;;;;;39.30;26.98;;;;;;;;;;4993090;28;20030;-59
2023/11/10 08:55:49;;;;;;;41.72;30.70;;;;;;;;;;4994743;28;20085;-59
2023/11/10 08:58:16;;;;;;;49.72;30.40;;;;;;;;;;4994210;28;20040;-62
2023/11/10 09:00:43;;;;;;;49.67;28.90;;;;;;;;;;4993834;28;20077;-61
2023/11/10 09:03:11;;;;;;;42.80;27.17;;;;;;;;;;4992937;28;20112;-61
2023/11/10 09:05:38;;;;;;;44.65;27.02;;;;;;;;;;4994004;28;20061;-61
2023/11/10 09:08:04;;;;;;;39.40;26.33;;;;;;;;;;4992584;28;20030;-61
2023/11/10 09:10:30;;;;;;;42.05;28.17;;;;;;;;;;4993825;28;20019;-61
2023/11/10 09:12:56;;;;;;;40.70;25.45;;;;;;;;;;4993878;28;20049;-59
2023/11/10 09:15:24;;;;;;;37.88;23.35;;;;;;;;;;4993769;28;20030;-60
2023/11/10 09:17:50;;;;;;;41.83;23.58;;;;;;;;;;4993765;28;20041;-59
2023/11/10 09:20:17;;;;;;;36.38;25.00;;;;;;;;;;4993567;28;20408;-59
2023/11/10 09:22:43;;;;;;;36.83;23.33;;;;;;;;;;4993548;28;20034;-59
2023/11/10 09:25:15;;;;;;;36.27;22.83;;;;;;;;;;4993681;28;20038;-59
2023/11/10 09:27:42;;;;;;;36.17;23.98;;;;;;;;;;4993528;28;20281;-59
2023/11/10 09:30:08;;;;;;;33.90;23.15;;;;;;;;;;4992238;28;20027;-60
2023/11/10 09:32:35;;;;;;;31.58;22.73;;;;;;;;;;4993457;28;20409;-58
2023/11/10 09:35:01;;;;;;;42.22;25.17;;;;;;;;;;4992430;28;20027;-59
2023/11/10 09:37:27;;;;;;;35.90;23.73;;;;;;;;;;4993366;28;20105;-59
2023/11/10 09:39:54;;;;;;;42.70;25.20;;;;;;;;;;4993354;28;20058;-59
2023/11/10 09:42:22;;;;;;;31.80;22.80;;;;;;;;;;4993007;28;20113;-59
2023/11/10 09:44:52;;;;;;;37.85;24.02;;;;;;;;;;4975854;28;20672;-59
2023/11/10 09:47:20;;;;;;;28.77;20.13;;;;;;;;;;4993225;28;20432;-59
2023/11/10 09:49:47;;;;;;;31.83;22.00;;;;;;;;;;4993110;28;20034;-60
2023/11/10 09:52:13;;;;;;;33.97;22.23;;;;;;;;;;4991630;28;20125;-59
2023/11/10 09:54:41;;;;;;;28.05;19.75;;;;;;;;;;4992351;28;20080;-59
2023/11/10 09:57:07;;;;;;;36.95;22.80;;;;;;;;;;4975717;28;20050;-59
2023/11/10 09:59:37;;;;;;;35.00;22.90;;;;;;;;;;4991749;28;20050;-59
2023/11/10 10:02:04;;;;;;;35.53;23.10;;;;;;;;;;4991479;28;20081;-60
2023/11/10 10:04:30;;;;;;;31.73;20.20;;;;;;;;;;4991675;28;20105;-59
2023/11/10 10:06:57;;;;;;;32.97;20.90;;;;;;;;;;4991655;28;20038;-59
2023/11/10 10:09:26;;;;;;;25.55;18.35;;;;;;;;;;4992850;28;20090;-59
2023/11/10 10:11:54;;;;;;;27.60;19.08;;;;;;;;;;4975235;28;20122;-59
2023/11/10 10:14:20;;;;;;;27.20;18.55;;;;;;;;;;4991663;28;20283;-60
2023/11/10 10:16:53;;;;;;;25.80;17.42;;;;;;;;;;4992742;28;20034;-59
2023/11/10 10:19:29;;;;;;;27.67;17.95;;;;;;;;;;4991206;28;20057;-60
2023/11/10 10:21:55;;;;;;;28.95;17.58;;;;;;;;;;5053056;23;20057;-47
2023/11/10 10:24:22;;;;;;;23.73;17.43;;;;;;;;;;5012171;28;20484;-48
2023/11/10 10:26:48;;;;;;;32.20;17.40;;;;;;;;;;5012123;28;20492;-49
2023/11/10 10:29:18;;;;;;;23.45;15.88;;;;;;;;;;5012165;28;20538;-48
2023/11/10 10:31:47;;;;;;;25.27;16.88;;;;;;;;;;5011822;28;20056;-50
2023/11/10 10:34:15;;;;;;;21.35;15.52;;;;;;;;;;5012170;28;20112;-48
2023/11/10 10:36:44;;;;;;;27.40;16.25;;;;;;;;;;4994909;28;20022;-49
2023/11/10 10:39:13;;;;;;;24.05;15.23;;;;;;;;;;5012060;28;20030;-50
2023/11/10 10:41:40;;;;;;;23.80;17.85;;;;;;;;;;5011786;28;20053;-46
2023/11/10 10:44:06;;;;;;;26.35;16.58;;;;;;;;;;4994315;28;20034;-47
2023/11/10 10:46:39;;;;;;;21.23;16.17;;;;;;;;;;4978153;28;20034;-48
2023/11/10 10:49:06;;;;;;;21.85;15.95;;;;;;;;;;5012018;28;20105;-48
2023/11/10 10:51:37;;;;;;;21.52;14.07;;;;;;;;;;4994107;28;20026;-51
2023/11/10 10:54:05;;;;;;;25.30;15.98;;;;;;;;;;5011825;28;20468;-47
2023/11/10 10:56:34;;;;;;;25.67;14.65;;;;;;;;;;4994564;28;20014;-49
2023/11/10 10:59:00;;;;;;;25.30;17.02;;;;;;;;;;5011754;28;20022;-48
2023/11/10 11:01:27;;;;;;;24.23;17.07;;;;;;;;;;4977831;28;20121;-48
2023/11/10 11:04:12;;;;;;;25.40;16.27;;;;;;;;;;5011822;28;20155;-49
2023/11/10 11:06:58;;;;;;;29.55;16.75;;;;;;;;;;5014787;28;20021;-47
2023/11/10 11:09:25;;;;;;;29.73;16.95;;;;;;;;;;5015929;28;20511;-48
2023/11/10 11:12:12;;;;;;;35.22;18.77;;;;;;;;;;5025610;28;20079;-48
2023/11/10 11:14:42;;;;;;;26.65;18.02;;;;;;;;;;4989643;28;20046;-49
2023/11/10 11:17:08;;;;;;;26.50;17.65;;;;;;;;;;5033263;28;20033;-48
2023/11/10 11:19:36;;;;;;;26.90;16.65;;;;;;;;;;5032792;28;20030;-48
2023/11/10 11:22:02;;;;;;;26.02;18.25;;;;;;;;;;5034282;28;20468;-50
2023/11/10 11:24:32;;;;;;;27.43;18.63;;;;;;;;;;5033744;28;20030;-49
2023/11/10 11:26:59;;;;;;;28.15;16.00;;;;;;;;;;4997524;28;20029;-47
2023/11/10 11:29:25;;;;;;;25.17;16.08;;;;;;;;;;5011339;28;20018;-48
2023/11/10 11:31:51;;;;;;;21.77;15.70;;;;;;;;;;5015860;28;20025;-48
2023/11/10 11:34:21;;;;;;;21.70;14.93;;;;;;;;;;5028273;28;20022;-47
2023/11/10 11:36:48;;;;;;;20.60;15.63;;;;;;;;;;5029682;28;20036;-48
2023/11/10 11:39:15;;;;;;;20.88;15.75;;;;;;;;;;5026824;28;20036;-48
2023/11/10 11:41:51;;;;;;;23.73;16.05;;;;;;;;;;5026533;28;20428;-49
2023/11/10 11:44:26;;;;;;;22.73;15.48;;;;;;;;;;5026080;28;20095;-49
2023/11/10 11:46:56;;;;;;;22.77;16.13;;;;;;;;;;5014371;28;20254;-48
2023/11/10 11:49:22;;;;;;;19.90;15.07;;;;;;;;;;4996787;28;20108;-47
2023/11/10 11:51:54;;;;;;;23.85;16.75;;;;;;;;;;5013704;28;20112;-48
2023/11/10 11:54:20;;;;;;;20.80;15.75;;;;;;;;;;5017963;28;20112;-48
2023/11/10 11:56:47;;;;;;;22.38;15.05;;;;;;;;;;5017299;28;20030;-48
2023/11/10 11:59:16;;;;;;;21.97;15.60;;;;;;;;;;5012984;28;20025;-49
2023/11/10 12:01:42;;;;;;;15.32;13.07;;;;;;;;;;5017556;28;20026;-47
2023/11/10 12:04:08;;;;;;;16.98;14.52;;;;;;;;;;5017465;28;20030;-51
2023/11/10 12:06:35;;;;;;;17.92;13.60;;;;;;;;;;5027280;28;20036;-48
2023/11/10 12:09:05;;;;;;;15.38;12.13;;;;;;;;;;5021149;28;20025;-48
2023/11/10 12:11:35;;;;;;;16.10;12.55;;;;;;;;;;5022864;28;20076;-47
2023/11/10 12:14:12;;;;;;;15.90;12.88;;;;;;;;;;5015418;28;20026;-49
2023/11/10 12:16:47;;;;;;;19.58;13.85;;;;;;;;;;5006920;28;20125;-48
2023/11/10 12:19:13;;;;;;;28.15;22.88;;;;;;;;;;5027533;28;20053;-47
2023/11/10 12:21:39;;;;;;;20.17;15.20;;;;;;;;;;5015426;28;20034;-47
2023/11/10 12:24:07;;;;;;;17.10;13.65;;;;;;;;;;5015744;28;20517;-48
2023/11/10 12:26:35;;;;;;;31.20;22.17;;;;;;;;;;5013252;28;20044;-49
2023/11/10 12:29:04;;;;;;;19.33;15.77;;;;;;;;;;5012984;28;20260;-49
2023/11/10 12:31:32;;;;;;;22.63;17.20;;;;;;;;;;5005256;28;20076;-48
2023/11/10 12:34:02;;;;;;;18.70;15.50;;;;;;;;;;5013906;28;20092;-49
2023/11/10 12:36:31;;;;;;;22.75;15.70;;;;;;;;;;5028084;28;20499;-48
2023/11/10 12:38:57;;;;;;;22.20;16.02;;;;;;;;;;5033129;28;20034;-48
2023/11/10 12:41:23;;;;;;;20.30;14.48;;;;;;;;;;4998012;28;20037;-48
2023/11/10 12:43:50;;;;;;;;;;;;;;;;;;5021174;28;20038;-48
2023/11/10 12:46:16;;;;;;;17.38;14.32;;;;;;;;;;5023391;28;19909;-48
2023/11/10 12:48:43;;;;;;;21.23;17.05;;;;;;;;;;5030386;28;20033;-48
2023/11/10 12:51:11;;;;;;;22.77;16.33;;;;;;;;;;5028364;28;20068;-48
2023/11/10 12:53:38;;;;;;;20.05;16.45;;;;;;;;;;5006435;28;20025;-51
2023/11/10 12:56:06;;;;;;;22.13;18.17;;;;;;;;;;4999347;28;20025;-48
2023/11/10 12:58:33;;;;;;;26.40;17.60;;;;;;;;;;4999785;28;20087;-48
2023/11/10 13:00:59;;;;;;;22.58;18.42;;;;;;;;;;5020566;28;20173;-48
2023/11/10 13:03:25;;;;;;;34.50;22.23;;;;;;;;;;5031784;28;20035;-49
2023/11/10 13:05:51;;;;;;;28.33;21.90;;;;;;;;;;5015683;28;20292;-48
2023/11/10 13:08:17;;;;;;;26.92;22.90;;;;;;;;;;5033071;28;20029;-48
2023/11/10 13:10:44;;;;;;;30.17;21.58;;;;;;;;;;5027279;28;20030;-47
2023/11/10 13:13:10;;;;;;;26.83;22.38;;;;;;;;;;5008562;28;20391;-47
2023/11/10 13:15:36;;;;;;;26.27;21.50;;;;;;;;;;5015465;28;20033;-49
2023/11/10 13:18:03;;;;;;;25.77;21.17;;;;;;;;;;5010902;28;20128;-48
2023/11/10 13:20:32;;;;;;;22.90;18.88;;;;;;;;;;5021944;28;20546;-47
2023/11/10 13:22:58;;;;;;;23.67;18.80;;;;;;;;;;5028717;28;20491;-48
2023/11/10 13:25:25;;;;;;;20.23;16.92;;;;;;;;;;4996622;28;20033;-48
2023/11/10 13:27:51;;;;;;;23.90;20.85;;;;;;;;;;5013727;28;20034;-47
2023/11/10 13:30:18;;;;;;;24.45;20.25;;;;;;;;;;4995438;28;20030;-47
2023/11/10 13:32:47;;;;;;;25.10;18.90;;;;;;;;;;5013760;28;20026;-47
2023/11/10 13:35:15;;;;;;;23.52;17.45;;;;;;;;;;5019880;28;20542;-47
2023/11/10 13:37:42;;;;;;;19.00;16.25;;;;;;;;;;5032799;28;20033;-47
2023/11/10 13:40:16;;;;;;;19.45;17.23;;;;;;;;;;5032718;28;20033;-48
2023/11/10 13:42:42;;;;;;;21.38;19.08;;;;;;;;;;5032555;28;20068;-48
2023/11/10 13:45:10;;;;;;;26.45;18.70;;;;;;;;;;5032634;28;20067;-46
2023/11/10 13:47:40;;;;;;;23.88;17.30;;;;;;;;;;5014682;28;20057;-47
2023/11/10 13:50:07;;;;;;;18.85;15.65;;;;;;;;;;5014821;28;20029;-46
2023/11/10 13:52:33;;;;;;;18.13;15.40;;;;;;;;;;5032258;28;20060;-48
2023/11/10 13:54:59;;;;;;;17.15;14.57;;;;;;;;;;5032473;28;20036;-48
2023/11/10 13:57:26;;;;;;;17.80;14.00;;;;;;;;;;5014711;28;20040;-47
2023/11/10 13:59:52;;;;;;;16.67;14.48;;;;;;;;;;4998255;28;20079;-47
2023/11/10 14:02:18;;;;;;;18.85;15.63;;;;;;;;;;5014461;28;20024;-47
2023/11/10 14:04:46;;;;;;;14.30;12.05;;;;;;;;;;5032496;28;20032;-48
2023/11/10 14:07:13;;;;;;;15.68;13.02;;;;;;;;;;5021165;28;20025;-49
2023/11/10 14:09:39;;;;;;;17.02;13.38;;;;;;;;;;5012577;28;20033;-48
2023/11/10 14:12:08;;;;;;;15.07;13.48;;;;;;;;;;5012407;28;20030;-50
2023/11/10 14:14:39;;;;;;;13.85;12.45;;;;;;;;;;5012938;28;20033;-49
2023/11/10 14:17:10;;;;;;;15.35;13.18;;;;;;;;;;5003184;28;20080;-48
2023/11/10 14:19:37;;;;;;;15.95;14.10;;;;;;;;;;5027591;28;20037;-48
2023/11/10 14:22:06;;;;;;;17.70;15.20;;;;;;;;;;5020156;28;20041;-47
2023/11/10 14:24:35;;;;;;;21.10;15.73;;;;;;;;;;5015707;28;20507;-48